Time;durP1;ratioP1;P1;durP2;ratioP2;P2;SDS_P1;SDS_P2;PMS_P1;PMS_P2;Temp;Humidity;BMP_temperature;BMP_pressure;BME280_temperature;BME280_humidity;BME280_pressure;Samples;Min_cycle;Max_cycle;Signal;HPM_P1;HPM_P2
2022/09/12 00:00:25;;;;;;;5.50;3.47;;;;;;;18.76;46.29;99636.69;5107886;28;20248;-67
2022/09/12 00:02:53;;;;;;;5.05;3.13;;;;;;;18.76;46.46;99645.59;5107837;28;20027;-68
2022/09/12 00:05:18;;;;;;;4.68;3.05;;;;;;;18.75;46.54;99637.69;5106505;28;20124;-67
2022/09/12 00:07:44;;;;;;;4.80;3.33;;;;;;;18.75;46.53;99640.38;5107953;28;20026;-66
2022/09/12 00:10:09;;;;;;;7.05;3.90;;;;;;;18.73;46.69;99632.53;5107759;28;20028;-67
2022/09/12 00:12:35;;;;;;;3.67;2.75;;;;;;;18.72;46.69;99633.53;5107522;28;20020;-67
2022/09/12 00:15:00;;;;;;;4.85;3.15;;;;;;;18.74;46.74;99630.69;5107872;28;20221;-68
2022/09/12 00:17:26;;;;;;;4.35;2.60;;;;;;;18.72;46.71;99625.50;5107875;28;20035;-69
2022/09/12 00:19:51;;;;;;;5.72;3.40;;;;;;;18.73;46.81;99623.66;5108119;28;20019;-67
2022/09/12 00:22:17;;;;;;;5.50;2.70;;;;;;;18.72;46.69;99617.44;5106134;28;20020;-68
2022/09/12 00:24:43;;;;;;;4.93;3.47;;;;;;;18.72;46.69;99622.00;5087294;28;20016;-68
2022/09/12 00:27:08;;;;;;;4.03;2.58;;;;;;;18.73;46.76;99623.66;5087277;28;20016;-68
2022/09/12 00:29:34;;;;;;;4.80;2.75;;;;;;;18.70;46.50;99622.13;5088505;28;20020;-69
2022/09/12 00:31:59;;;;;;;3.63;2.45;;;;;;;18.70;46.74;99610.59;5091296;28;20020;-68
2022/09/12 00:34:25;;;;;;;4.82;2.78;;;;;;;18.69;46.82;99604.38;5091228;28;20053;-68
2022/09/12 00:36:50;;;;;;;4.78;3.22;;;;;;;18.70;46.81;99606.06;5091209;28;20241;-68
2022/09/12 00:39:16;;;;;;;3.85;2.70;;;;;;;18.69;46.74;99600.88;5110543;28;20053;-68
2022/09/12 00:41:42;;;;;;;4.28;2.63;;;;;;;18.71;46.80;99610.41;5111446;28;20121;-68
2022/09/12 00:44:11;;;;;;;5.65;2.85;;;;;;;18.69;46.71;99604.38;5111268;28;20108;-67
2022/09/12 00:46:44;;;;;;;3.78;2.42;;;;;;;18.68;46.85;99605.41;5111309;28;20012;-68
2022/09/12 00:49:18;;;;;;;4.97;3.05;;;;;;;18.69;46.82;99608.94;5111432;28;20055;-68
2022/09/12 00:51:50;;;;;;;4.28;3.13;;;;;;;18.67;46.90;99600.22;5111123;28;20012;-67
2022/09/12 00:54:22;;;;;;;4.30;2.40;;;;;;;18.69;47.05;99606.25;5111194;28;20008;-67
2022/09/12 00:56:53;;;;;;;5.07;2.70;;;;;;;18.68;47.04;99607.25;5111498;28;20016;-68
2022/09/12 00:59:27;;;;;;;5.20;2.65;;;;;;;18.68;47.12;99607.25;5111219;28;20087;-68
2022/09/12 01:01:54;;;;;;;5.35;2.60;;;;;;;18.67;47.18;99600.22;5111060;28;20248;-68
2022/09/12 01:04:22;;;;;;;3.22;2.20;;;;;;;18.68;47.24;99596.53;5110912;28;20051;-67
2022/09/12 01:06:48;;;;;;;3.55;2.40;;;;;;;18.66;47.11;99599.41;5110141;28;20060;-69
2022/09/12 01:09:17;;;;;;;3.30;2.42;;;;;;;18.67;47.21;99597.53;5110551;28;20024;-68
2022/09/12 01:11:45;;;;;;;5.47;2.83;;;;;;;18.66;46.97;99596.72;5110867;28;20221;-68
2022/09/12 01:14:12;;;;;;;4.70;2.88;;;;;;;18.67;47.14;99592.19;5127741;28;20050;-67
2022/09/12 01:16:39;;;;;;;4.20;2.88;;;;;;;18.67;47.26;99590.34;5131235;28;20038;-69
2022/09/12 01:19:20;;;;;;;5.05;2.60;;;;;;;18.66;47.25;99591.34;5114961;28;20016;-67
2022/09/12 01:22:04;;;;;;;;;;;;;;;18.59;47.09;99587.69;5111087;28;20029;-68
2022/09/12 01:24:50;;;;;;;5.22;2.72;;;;;;;18.62;47.23;99592.69;5110559;28;19919;-68
2022/09/12 01:28:00;;;;;;;7.20;3.03;;;;;;;18.60;47.12;99592.03;5110671;28;20016;-67
2022/09/12 01:30:51;;;;;;;3.92;2.55;;;;;;;18.60;47.14;99581.31;5010708;28;20179;-68
2022/09/12 01:33:39;;;;;;;4.70;2.63;;;;;;;18.60;47.38;99587.50;5101312;28;20012;-69
2022/09/12 01:36:19;;;;;;;4.25;2.45;;;;;;;18.59;47.37;99585.84;5110102;28;20313;-68
2022/09/12 01:39:05;;;;;;;3.60;2.17;;;;;;;18.60;47.46;99587.50;5110419;28;20023;-68
2022/09/12 01:41:59;;;;;;;3.85;2.17;;;;;;;18.61;47.30;99593.69;5110520;28;20241;-68
2022/09/12 01:44:33;;;;;;;4.35;2.47;;;;;;;18.59;47.41;99585.00;5110003;28;20044;-68
2022/09/12 01:47:19;;;;;;;5.00;3.03;;;;;;;18.59;47.42;99588.53;5109835;28;20045;-68
2022/09/12 01:50:11;;;;;;;4.80;2.38;;;;;;;18.59;47.42;99583.16;5110060;28;20019;-67
2022/09/12 01:52:40;;;;;;;4.18;2.28;;;;;;;18.59;47.50;99583.16;5109216;28;20164;-67
2022/09/12 01:55:09;;;;;;;3.60;2.72;;;;;;;18.59;47.31;99585.00;5110041;28;20121;-68
2022/09/12 01:57:40;;;;;;;4.25;2.35;;;;;;;18.60;47.39;99582.13;5110092;28;20023;-68
2022/09/12 02:00:09;;;;;;;5.32;3.00;;;;;;;18.59;47.18;99590.34;5110025;28;20314;-67
2022/09/12 02:02:50;;;;;;;3.72;2.30;;;;;;;18.58;47.37;99583.31;5090597;28;20036;-67
2022/09/12 02:05:28;;;;;;;4.97;2.75;;;;;;;18.59;47.51;99580.50;5109266;28;20028;-67
2022/09/12 02:08:16;;;;;;;4.28;2.83;;;;;;;18.59;47.55;99585.84;5108035;28;20024;-68
2022/09/12 02:10:56;;;;;;;3.45;2.47;;;;;;;18.60;47.52;99589.34;5109011;28;20020;-68
2022/09/12 02:13:30;;;;;;;3.80;2.55;;;;;;;18.59;47.57;99585.00;5109688;28;20183;-67
2022/09/12 02:16:04;;;;;;;7.22;3.15;;;;;;;18.60;47.54;99582.13;5107722;28;20008;-68
2022/09/12 02:18:32;;;;;;;5.50;3.40;;;;;;;18.60;47.62;99582.13;5108436;28;20028;-69
2022/09/12 02:21:00;;;;;;;8.13;3.83;;;;;;;18.63;47.82;99574.75;5104025;28;20027;-68
2022/09/12 02:23:30;;;;;;;7.40;4.70;;;;;;;18.65;47.84;99578.09;5106671;28;20012;-68
2022/09/12 02:26:05;;;;;;;11.80;5.32;;;;;;;18.64;48.02;99577.28;5107952;28;20016;-67
2022/09/12 02:28:36;;;;;;;14.23;6.10;;;;;;;18.65;47.99;99578.97;5108502;28;20031;-67
2022/09/12 02:31:13;;;;;;;10.57;4.85;;;;;;;18.64;47.75;99582.66;5108514;28;20016;-71
2022/09/12 02:33:47;;;;;;;11.13;6.15;;;;;;;18.63;47.81;99572.94;5109134;28;20196;-68
2022/09/12 02:36:39;;;;;;;11.38;4.28;;;;;;;18.61;47.81;99578.44;5109120;28;20055;-69
2022/09/12 02:39:05;;;;;;;7.00;4.28;;;;;;;18.61;47.94;99581.13;5108497;28;20016;-66
2022/09/12 02:41:30;;;;;;;9.15;4.70;;;;;;;18.58;48.14;99573.47;5108304;28;20035;-67
2022/09/12 02:43:56;;;;;;;9.20;4.38;;;;;;;18.59;48.19;99575.13;5108195;28;20227;-67
2022/09/12 02:46:31;;;;;;;7.47;5.22;;;;;;;18.58;47.99;99573.47;5108904;28;20020;-66
2022/09/12 02:48:57;;;;;;;13.70;5.43;;;;;;;18.58;48.18;99580.66;5108970;28;20023;-68
2022/09/12 02:51:22;;;;;;;14.15;5.15;;;;;;;18.56;48.16;99580.81;5109034;28;20140;-67
2022/09/12 02:53:48;;;;;;;6.80;4.15;;;;;;;18.55;48.16;99579.16;5108423;28;20038;-69
2022/09/12 02:56:21;;;;;;;15.13;5.20;;;;;;;18.54;48.41;99579.31;5108931;28;20016;-67
2022/09/12 02:58:47;;;;;;;12.10;5.10;;;;;;;18.52;48.35;99576.81;5120202;28;20019;-69
2022/09/12 03:01:35;;;;;;;7.45;4.50;;;;;;;18.51;48.13;99577.81;5112814;28;20031;-67
2022/09/12 03:04:18;;;;;;;7.50;3.97;;;;;;;18.49;48.23;99577.16;5108632;28;20229;-67
2022/09/12 03:07:02;;;;;;;8.82;4.55;;;;;;;18.48;48.28;99578.16;5108587;28;20016;-68
2022/09/12 03:09:45;;;;;;;7.55;4.10;;;;;;;18.48;48.18;99583.50;5108671;28;20016;-68
2022/09/12 03:12:26;;;;;;;8.43;4.50;;;;;;;18.45;48.42;99576.66;5108245;28;20012;-67
2022/09/12 03:15:13;;;;;;;6.10;3.40;;;;;;;18.43;48.58;99572.50;5108480;28;20015;-68
2022/09/12 03:17:57;;;;;;;5.93;3.95;;;;;;;18.43;48.16;99576.00;5108331;28;20040;-66
2022/09/12 03:20:34;;;;;;;6.15;3.22;;;;;;;18.42;48.48;99581.53;5108098;28;20020;-65
2022/09/12 03:23:08;;;;;;;5.43;3.33;;;;;;;18.41;48.58;99582.53;5107939;28;20015;-66
2022/09/12 03:25:46;;;;;;;7.35;3.95;;;;;;;18.39;48.61;99581.88;5108219;28;20079;-68
2022/09/12 03:28:15;;;;;;;6.25;3.55;;;;;;;18.38;48.71;99582.88;5108274;28;20056;-68
2022/09/12 03:30:43;;;;;;;7.53;5.13;;;;;;;18.39;48.44;99587.22;5108187;28;20020;-68
2022/09/12 03:33:20;;;;;;;7.60;3.72;;;;;;;18.38;48.45;99578.34;5108185;28;20035;-67
2022/09/12 03:35:46;;;;;;;6.45;3.28;;;;;;;18.36;48.55;99584.88;5107908;28;20087;-67
2022/09/12 03:38:12;;;;;;;5.70;3.22;;;;;;;18.37;48.56;99591.91;5108702;28;20008;-68
2022/09/12 03:40:38;;;;;;;6.97;3.42;;;;;;;18.37;48.51;99581.19;5120335;28;20026;-68
2022/09/12 03:43:05;;;;;;;6.68;4.00;;;;;;;18.35;48.46;99578.72;5128314;28;20042;-68
2022/09/12 03:45:31;;;;;;;7.45;3.83;;;;;;;18.35;48.56;99572.50;5128415;28;20064;-68
2022/09/12 03:47:57;;;;;;;7.63;3.67;;;;;;;18.33;48.52;99572.69;5120403;28;20020;-68
2022/09/12 03:50:22;;;;;;;6.53;3.42;;;;;;;18.33;48.59;99578.03;5107887;28;20008;-69
2022/09/12 03:52:48;;;;;;;6.32;3.13;;;;;;;18.35;48.58;99583.22;5107844;28;20058;-68
2022/09/12 03:55:14;;;;;;;6.15;3.65;;;;;;;18.33;48.64;99570.00;5107884;28;20014;-67
2022/09/12 03:57:39;;;;;;;7.07;3.92;;;;;;;18.34;48.67;99570.81;5107782;28;20012;-69
2022/09/12 04:00:07;;;;;;;5.93;4.05;;;;;;;18.33;48.68;99563.78;5107853;28;20087;-67
2022/09/12 04:02:33;;;;;;;4.93;3.45;;;;;;;18.33;48.55;99563.78;5107129;28;20098;-69
2022/09/12 04:04:59;;;;;;;7.45;3.97;;;;;;;18.31;48.94;99563.97;5106913;28;20043;-69
2022/09/12 04:07:25;;;;;;;5.40;3.60;;;;;;;18.31;48.76;99555.94;5107631;28;20129;-67
2022/09/12 04:09:51;;;;;;;5.47;3.65;;;;;;;18.31;49.18;99566.66;5107804;28;20047;-68
2022/09/12 04:12:16;;;;;;;9.35;3.75;;;;;;;18.31;49.25;99566.66;5097285;28;20039;-68
2022/09/12 04:14:42;;;;;;;6.18;3.33;;;;;;;18.32;49.37;99562.13;5087460;28;20016;-67
2022/09/12 04:17:07;;;;;;;6.20;3.35;;;;;;;18.32;49.00;99568.31;5096631;28;20061;-68
2022/09/12 04:19:33;;;;;;;6.70;3.15;;;;;;;18.33;49.04;99561.13;5119140;28;20232;-66
2022/09/12 04:21:58;;;;;;;5.53;3.65;;;;;;;18.30;48.78;99563.16;5107675;28;20023;-65
2022/09/12 04:24:24;;;;;;;6.63;3.42;;;;;;;18.30;48.84;99568.50;5107316;28;20083;-67
2022/09/12 04:26:49;;;;;;;5.38;3.40;;;;;;;18.30;48.77;99564.97;5107387;28;20023;-66
2022/09/12 04:29:15;;;;;;;5.72;4.20;;;;;;;18.29;48.86;99568.66;5107606;28;20020;-66
2022/09/12 04:31:41;;;;;;;4.72;3.22;;;;;;;18.29;48.86;99563.31;5107508;28;20008;-67
2022/09/12 04:34:07;;;;;;;4.70;3.40;;;;;;;18.29;48.79;99564.16;5107241;28;20278;-68
2022/09/12 04:36:33;;;;;;;7.35;3.33;;;;;;;18.29;48.74;99574.88;5107522;28;20012;-67
2022/09/12 04:39:00;;;;;;;4.85;3.03;;;;;;;18.30;48.74;99570.34;5107412;28;20015;-67
2022/09/12 04:41:29;;;;;;;5.95;3.50;;;;;;;18.30;48.88;99576.53;5106606;28;20239;-66
2022/09/12 04:44:00;;;;;;;5.45;3.53;;;;;;;18.29;48.63;99569.50;5113284;28;20084;-66
2022/09/12 04:46:26;;;;;;;5.70;3.47;;;;;;;18.29;48.61;99574.88;5127310;28;20019;-67
2022/09/12 04:48:51;;;;;;;4.18;3.05;;;;;;;18.29;48.78;99564.16;5127656;28;20026;-67
2022/09/12 04:51:20;;;;;;;6.22;3.85;;;;;;;18.30;48.66;99571.19;5119641;28;20028;-66
2022/09/12 04:53:51;;;;;;;4.80;3.13;;;;;;;18.30;48.53;99567.66;5107224;28;20099;-66
2022/09/12 04:56:18;;;;;;;5.65;2.95;;;;;;;18.29;48.54;99574.00;5107163;28;20022;-68
2022/09/12 04:58:44;;;;;;;6.25;3.33;;;;;;;18.29;48.46;99565.97;5106960;28;20083;-68
2022/09/12 05:01:16;;;;;;;5.88;2.80;;;;;;;18.29;48.61;99564.16;5100522;28;20241;-68
2022/09/12 05:03:44;;;;;;;5.75;3.50;;;;;;;18.29;48.47;99571.34;5085908;28;20051;-68
2022/09/12 05:06:15;;;;;;;3.53;2.90;;;;;;;18.30;48.67;99571.19;5086872;28;20036;-68
2022/09/12 05:08:41;;;;;;;6.10;3.70;;;;;;;18.30;48.70;99576.53;5086772;28;20024;-69
2022/09/12 05:11:11;;;;;;;5.28;3.40;;;;;;;18.33;48.58;99570.00;5102635;28;20027;-67
2022/09/12 05:13:37;;;;;;;5.00;3.15;;;;;;;18.33;48.63;99572.69;5125579;28;20019;-68
2022/09/12 05:16:04;;;;;;;4.90;3.38;;;;;;;18.34;48.56;99569.00;5129195;28;20215;-69
2022/09/12 05:18:31;;;;;;;4.07;3.08;;;;;;;18.35;48.62;99570.66;5123059;28;20117;-68
2022/09/12 05:21:02;;;;;;;4.85;2.83;;;;;;;18.36;48.49;99563.44;5129112;28;20011;-67
2022/09/12 05:23:28;;;;;;;5.45;3.40;;;;;;;18.35;48.39;99564.47;5119529;27;20032;-68
2022/09/12 05:25:56;;;;;;;6.55;3.80;;;;;;;18.35;48.42;99562.63;5110426;28;20019;-68
2022/09/12 05:28:24;;;;;;;5.68;3.28;;;;;;;18.35;48.27;99570.66;5110426;28;20099;-68
2022/09/12 05:31:02;;;;;;;5.45;3.05;;;;;;;18.36;48.34;99569.66;5110507;28;20019;-70
2022/09/12 05:33:29;;;;;;;8.40;3.72;;;;;;;18.36;48.40;99574.16;5110443;28;20160;-67
2022/09/12 05:35:54;;;;;;;6.40;3.35;;;;;;;18.38;48.44;99566.81;5110555;28;20012;-67
2022/09/12 05:38:19;;;;;;;6.18;3.10;;;;;;;18.37;48.39;99567.81;5110215;28;20047;-68
2022/09/12 05:40:45;;;;;;;5.28;3.15;;;;;;;18.37;48.31;99563.31;5110566;28;20047;-68
2022/09/12 05:43:13;;;;;;;6.28;3.92;;;;;;;18.37;48.38;99560.63;5109931;28;20384;-67
2022/09/12 05:45:40;;;;;;;6.45;3.35;;;;;;;18.38;48.22;99561.44;5110115;28;20030;-68
2022/09/12 05:48:05;;;;;;;6.45;4.13;;;;;;;18.38;48.23;99562.25;5110290;28;20016;-66
2022/09/12 05:50:31;;;;;;;7.78;2.78;;;;;;;18.36;48.42;99553.59;5103641;28;20133;-68
2022/09/12 05:52:57;;;;;;;3.75;2.85;;;;;;;18.38;48.34;99556.09;5094001;28;20043;-66
2022/09/12 05:55:23;;;;;;;5.88;3.33;;;;;;;18.38;48.08;99553.41;5109974;28;20008;-68
2022/09/12 05:57:49;;;;;;;5.75;3.72;;;;;;;18.39;48.38;99553.22;5110158;28;20034;-67
2022/09/12 06:00:15;;;;;;;5.28;3.17;;;;;;;18.38;48.11;99556.91;5109994;28;20016;-66
2022/09/12 06:02:41;;;;;;;4.88;3.47;;;;;;;18.39;48.21;99555.09;5109848;28;20039;-66
2022/09/12 06:05:07;;;;;;;5.47;3.20;;;;;;;18.40;48.13;99551.41;5128557;28;20026;-66
2022/09/12 06:07:34;;;;;;;8.30;3.58;;;;;;;18.42;48.00;99560.09;5127079;28;20039;-68
2022/09/12 06:09:59;;;;;;;5.35;3.45;;;;;;;18.43;47.92;99553.75;5115897;28;20229;-67
2022/09/12 06:12:27;;;;;;;6.25;3.90;;;;;;;18.43;47.65;99551.06;5118255;28;20016;-69
2022/09/12 06:14:53;;;;;;;6.35;3.30;;;;;;;18.44;47.78;99547.38;5109693;28;20012;-66
2022/09/12 06:17:18;;;;;;;5.35;2.88;;;;;;;18.46;47.94;99550.69;5109704;28;20016;-68
2022/09/12 06:19:44;;;;;;;6.90;3.10;;;;;;;18.46;47.72;99542.66;5109497;28;20075;-67
2022/09/12 06:22:10;;;;;;;5.10;3.28;;;;;;;18.49;47.56;99545.00;5108923;28;20034;-68
2022/09/12 06:24:35;;;;;;;4.38;3.22;;;;;;;18.51;47.43;99548.34;5107712;28;20034;-66
2022/09/12 06:27:01;;;;;;;4.47;2.97;;;;;;;18.53;47.15;99543.66;5108377;28;20016;-67
2022/09/12 06:29:27;;;;;;;7.82;2.92;;;;;;;18.54;47.29;99550.69;5109595;28;20012;-67
2022/09/12 06:31:53;;;;;;;5.38;3.25;;;;;;;18.57;47.22;99555.72;5109316;28;20027;-68
2022/09/12 06:34:19;;;;;;;14.70;4.10;;;;;;;18.58;47.10;99552.03;5109287;28;20020;-68
2022/09/12 06:36:47;;;;;;;10.32;4.38;;;;;;;18.61;47.09;99557.00;5109015;28;20012;-68
2022/09/12 06:39:15;;;;;;;14.70;5.18;;;;;;;18.63;46.97;99556.00;5108475;28;20023;-68
2022/09/12 06:41:41;;;;;;;18.60;5.47;;;;;;;18.63;46.87;99556.00;5109212;28;20047;-68
2022/09/12 06:44:09;;;;;;;12.82;5.88;;;;;;;18.61;46.62;99554.34;5108883;28;20093;-69
2022/09/12 06:46:34;;;;;;;17.67;6.05;;;;;;;18.64;46.77;99555.00;5108991;28;20023;-68
2022/09/12 06:49:00;;;;;;;26.55;7.75;;;;;;;18.66;46.54;99555.66;5108599;28;20236;-65
2022/09/12 06:51:27;;;;;;;18.05;6.97;;;;;;;18.65;46.74;99560.19;5108849;28;20074;-66
2022/09/12 06:53:57;;;;;;;17.85;5.70;;;;;;;18.66;46.96;99552.97;5108768;28;20019;-68
2022/09/12 06:56:26;;;;;;;20.23;8.18;;;;;;;18.66;47.21;99553.84;5108780;28;20012;-66
2022/09/12 06:58:54;;;;;;;17.38;6.18;;;;;;;18.66;46.99;99553.84;5108749;28;20027;-66
2022/09/12 07:01:23;;;;;;;14.80;5.05;;;;;;;18.69;46.96;99547.28;5108563;28;20036;-68
2022/09/12 07:03:51;;;;;;;22.17;7.03;;;;;;;18.72;46.73;99549.63;5108461;28;20229;-66
2022/09/12 07:06:22;;;;;;;19.10;5.97;;;;;;;18.74;46.59;99550.28;5108606;28;20275;-67
2022/09/12 07:08:48;;;;;;;14.82;4.93;;;;;;;18.76;46.20;99561.66;5110325;28;20125;-70
2022/09/12 07:11:15;;;;;;;15.15;5.70;;;;;;;18.78;46.51;99562.31;5108612;28;20026;-68
2022/09/12 07:13:42;;;;;;;12.55;4.60;;;;;;;18.81;46.07;99571.88;5108397;28;20012;-65
2022/09/12 07:16:09;;;;;;;18.13;5.45;;;;;;;18.81;46.14;99572.69;5108028;28;20209;-68
2022/09/12 07:18:37;;;;;;;11.00;4.60;;;;;;;18.83;45.94;99568.00;5108671;28;20110;-67
2022/09/12 07:21:04;;;;;;;13.88;4.88;;;;;;;18.84;45.80;99564.31;5108420;28;20023;-66
2022/09/12 07:23:30;;;;;;;10.93;4.65;;;;;;;18.86;45.75;99570.34;5108308;28;20193;-69
2022/09/12 07:25:57;;;;;;;13.98;5.70;;;;;;;18.88;45.98;99565.63;5108113;28;20008;-65
2022/09/12 07:28:28;;;;;;;17.33;5.85;;;;;;;18.88;46.21;99571.00;5113203;28;20016;-67
2022/09/12 07:30:54;;;;;;;6.85;3.65;;;;;;;18.87;45.99;99566.66;5109461;28;20252;-66
2022/09/12 07:33:21;;;;;;;10.60;4.55;;;;;;;18.89;45.95;99570.00;5107955;28;20241;-67
2022/09/12 07:35:47;;;;;;;17.15;6.53;;;;;;;18.89;46.25;99570.00;5108217;28;20069;-66
2022/09/12 07:38:12;;;;;;;8.75;4.40;;;;;;;18.90;46.13;99571.63;5108123;28;20051;-67
2022/09/12 07:40:38;;;;;;;16.42;5.72;;;;;;;18.89;46.15;99564.63;5108163;28;20030;-66
2022/09/12 07:43:03;;;;;;;13.05;5.57;;;;;;;18.90;46.18;99582.38;5107729;28;20042;-69
2022/09/12 07:45:29;;;;;;;16.00;5.68;;;;;;;18.89;46.51;99571.81;5108045;28;20023;-67
2022/09/12 07:47:54;;;;;;;12.15;5.50;;;;;;;18.91;46.47;99588.56;5108209;28;20020;-67
2022/09/12 07:50:20;;;;;;;11.50;4.97;;;;;;;18.89;46.32;99578.03;5107921;28;20027;-65
2022/09/12 07:52:45;;;;;;;14.45;5.45;;;;;;;18.92;46.48;99591.06;5107469;28;20132;-66
2022/09/12 07:55:11;;;;;;;15.10;4.93;;;;;;;18.91;46.41;99584.03;5128311;28;20083;-68
2022/09/12 07:57:36;;;;;;;14.57;6.50;;;;;;;18.92;47.39;99576.84;5128174;28;20019;-67
2022/09/12 08:00:04;;;;;;;13.25;5.75;;;;;;;18.96;47.46;99596.13;5128137;28;20030;-66
2022/09/12 08:02:30;;;;;;;10.10;4.15;;;;;;;18.96;47.16;99585.41;5121358;28;20019;-68
2022/09/12 08:04:55;;;;;;;14.02;5.25;;;;;;;18.97;47.36;99581.72;5114975;28;20023;-66
2022/09/12 08:07:21;;;;;;;17.38;6.00;;;;;;;18.98;47.25;99584.19;5128047;28;20011;-69
2022/09/12 08:09:47;;;;;;;12.40;5.13;;;;;;;18.99;47.06;99579.69;5128128;28;20015;-67
2022/09/12 08:12:12;;;;;;;9.00;4.90;;;;;;;19.00;46.91;99586.72;5118222;28;20036;-69
2022/09/12 08:14:38;;;;;;;14.30;5.43;;;;;;;19.00;47.02;99594.78;5107635;28;20030;-69
2022/09/12 08:17:03;;;;;;;11.60;4.80;;;;;;;19.02;47.32;99587.41;5107221;28;20066;-67
2022/09/12 08:19:30;;;;;;;9.18;4.63;;;;;;;19.01;46.86;99586.53;5115357;28;20016;-69
2022/09/12 08:21:55;;;;;;;13.65;4.75;;;;;;;19.04;46.62;99598.78;5107568;28;20024;-68
2022/09/12 08:24:21;;;;;;;10.35;4.45;;;;;;;19.01;46.50;99591.91;5107324;28;20051;-67
2022/09/12 08:26:46;;;;;;;9.45;4.13;;;;;;;19.02;46.37;99584.72;5107403;28;20016;-66
2022/09/12 08:29:12;;;;;;;11.50;4.50;;;;;;;19.04;46.41;99594.25;5107313;28;20058;-66
2022/09/12 08:31:37;;;;;;;10.18;3.95;;;;;;;19.03;46.12;99586.38;5107507;28;20031;-68
2022/09/12 08:34:05;;;;;;;9.80;4.28;;;;;;;19.04;45.94;99596.09;5107797;28;20050;-68
2022/09/12 08:36:31;;;;;;;6.40;3.92;;;;;;;19.05;45.57;99590.56;5107743;28;20070;-68
2022/09/12 08:38:59;;;;;;;10.88;5.13;;;;;;;19.07;46.04;99590.38;5107406;28;20204;-69
2022/09/12 08:41:44;;;;;;;10.02;4.32;;;;;;;19.09;45.76;99590.22;5107388;28;20032;-66
2022/09/12 08:44:10;;;;;;;9.50;4.95;;;;;;;19.10;46.16;99587.34;5107393;28;20093;-66
2022/09/12 08:46:41;;;;;;;8.43;5.15;;;;;;;19.10;45.71;99590.03;5107343;28;20016;-67
2022/09/12 08:49:11;;;;;;;8.85;4.20;;;;;;;19.11;45.67;99578.28;5116878;28;20015;-68
2022/09/12 08:51:38;;;;;;;9.90;4.47;;;;;;;19.13;45.89;99575.41;5129519;28;20023;-66
2022/09/12 08:54:08;;;;;;;9.23;4.63;;;;;;;19.14;45.41;99577.94;5111069;28;20020;-69
2022/09/12 08:56:36;;;;;;;11.43;4.43;;;;;;;19.16;45.67;99580.44;5111321;28;20225;-67
2022/09/12 08:59:02;;;;;;;8.27;5.75;;;;;;;19.19;45.26;99580.91;5111083;28;20039;-68
2022/09/12 09:01:34;;;;;;;9.15;4.85;;;;;;;19.21;45.28;99578.06;5111167;28;20020;-68
2022/09/12 09:04:29;;;;;;;8.32;4.80;;;;;;;19.23;45.76;99572.53;5110477;28;20081;-65
2022/09/12 09:07:29;;;;;;;7.00;4.35;;;;;;;19.23;45.74;99570.69;5111793;28;20055;-67
2022/09/12 09:10:32;;;;;;;8.02;4.57;;;;;;;19.23;45.61;99569.84;5110301;28;20031;-66
2022/09/12 09:13:06;;;;;;;8.82;5.13;;;;;;;19.24;45.22;99560.78;5109715;28;20020;-66
2022/09/12 09:16:03;;;;;;;9.73;5.53;;;;;;;19.24;45.30;99566.16;5109855;28;20012;-66
2022/09/12 09:18:33;;;;;;;11.50;5.20;;;;;;;19.23;45.58;99565.31;5106498;28;20019;-68
2022/09/12 09:21:29;;;;;;;8.13;5.20;;;;;;;19.24;45.32;99561.63;5110534;28;20027;-66
2022/09/12 09:24:19;;;;;;;9.75;6.32;;;;;;;19.26;45.42;99564.13;5107650;28;20340;-66
2022/09/12 09:26:51;;;;;;;9.52;4.90;;;;;;;19.26;45.25;99559.63;5109600;28;20043;-69
2022/09/12 09:29:19;;;;;;;10.82;5.78;;;;;;;19.27;45.18;99563.94;5108994;28;20041;-66
2022/09/12 09:32:07;;;;;;;9.80;5.05;;;;;;;19.29;44.56;99561.09;5113436;28;20056;-67
2022/09/12 09:34:34;;;;;;;8.95;6.18;;;;;;;19.28;44.57;99557.56;5110286;28;20041;-66
2022/09/12 09:37:19;;;;;;;10.82;5.68;;;;;;;19.29;44.92;99559.22;5110371;28;20019;-66
2022/09/12 09:39:59;;;;;;;11.35;5.45;;;;;;;19.30;44.73;99565.44;5110443;28;20024;-66
2022/09/12 09:42:45;;;;;;;8.88;5.32;;;;;;;19.30;44.78;99563.59;5110050;28;20134;-66
2022/09/12 09:45:24;;;;;;;10.23;5.90;;;;;;;19.32;44.30;99571.47;5107121;28;20039;-69
2022/09/12 09:48:16;;;;;;;9.73;6.43;;;;;;;19.33;44.21;99570.47;5092119;28;20144;-65
2022/09/12 09:50:42;;;;;;;13.32;6.10;;;;;;;19.32;44.36;99574.97;5124037;28;20024;-68
2022/09/12 09:53:33;;;;;;;12.20;6.18;;;;;;;19.35;44.06;99574.63;5130782;28;20015;-66
2022/09/12 09:56:20;;;;;;;10.15;5.88;;;;;;;19.35;44.40;99573.78;5111372;28;20020;-67
2022/09/12 09:58:45;;;;;;;11.38;6.68;;;;;;;19.35;44.43;99580.00;5109835;28;20050;-64
2022/09/12 10:01:26;;;;;;;9.93;5.82;;;;;;;19.39;44.75;99569.75;5108774;28;20024;-66
2022/09/12 10:04:04;;;;;;;10.48;6.47;;;;;;;19.39;44.56;99567.06;5128653;28;20019;-65
2022/09/12 10:06:40;;;;;;;10.23;7.05;;;;;;;19.41;44.65;99572.25;5130208;28;20024;-67
2022/09/12 10:09:15;;;;;;;14.02;8.13;;;;;;;19.43;44.45;99575.56;5130238;28;20023;-68
2022/09/12 10:11:40;;;;;;;9.98;6.68;;;;;;;19.42;44.56;99569.38;5113701;28;20225;-65
2022/09/12 10:14:31;;;;;;;13.73;8.65;;;;;;;19.43;44.55;99564.84;5122378;28;20077;-67
2022/09/12 10:17:38;;;;;;;13.63;8.00;;;;;;;19.44;44.47;99567.38;5130065;28;20039;-65
2022/09/12 10:20:24;;;;;;;14.60;8.23;;;;;;;19.44;44.20;99563.84;5126082;28;20209;-68
2022/09/12 10:22:49;;;;;;;16.90;8.75;;;;;;;19.45;44.15;99573.56;5109193;28;20121;-65
2022/09/12 10:25:17;;;;;;;14.27;8.10;;;;;;;19.44;43.97;99562.00;5109468;28;20033;-69
2022/09/12 10:27:43;;;;;;;17.00;9.77;;;;;;;19.46;44.00;99569.88;5109083;28;20031;-66
2022/09/12 10:30:20;;;;;;;14.30;7.75;;;;;;;19.46;43.92;99570.72;5109775;28;20122;-65
2022/09/12 10:32:52;;;;;;;13.48;7.18;;;;;;;19.46;44.33;99568.03;5109038;28;20034;-65
2022/09/12 10:35:32;;;;;;;11.90;7.38;;;;;;;19.46;44.41;99569.88;5108940;28;20229;-64
2022/09/12 10:38:02;;;;;;;14.18;7.90;;;;;;;19.46;44.52;99565.34;5108281;28;20020;-66
2022/09/12 10:40:34;;;;;;;21.35;8.45;;;;;;;19.48;44.65;99575.88;5108948;28;20035;-66
2022/09/12 10:43:06;;;;;;;13.43;7.78;;;;;;;19.48;44.87;99567.84;5108757;28;20089;-65
2022/09/12 10:45:36;;;;;;;15.93;7.70;;;;;;;19.49;44.77;99564.97;5107601;28;20077;-65
2022/09/12 10:48:45;;;;;;;13.57;6.30;;;;;;;19.48;44.69;99557.94;5106640;28;20132;-65
2022/09/12 10:51:21;;;;;;;11.38;7.43;;;;;;;19.47;44.78;99564.34;5107876;28;20016;-66
2022/09/12 10:53:46;;;;;;;17.55;8.20;;;;;;;19.48;44.63;99557.09;5108616;28;20032;-67
2022/09/12 10:56:29;;;;;;;17.73;8.40;;;;;;;19.47;44.65;99560.81;5108532;28;20031;-68
2022/09/12 10:59:19;;;;;;;14.85;8.38;;;;;;;19.45;44.62;99558.31;5108784;28;20019;-67
2022/09/12 11:01:48;;;;;;;13.88;7.97;;;;;;;19.45;44.56;99558.31;5104305;28;20057;-67
2022/09/12 11:04:28;;;;;;;16.00;7.72;;;;;;;19.47;44.66;99560.81;5088301;28;20024;-68
2022/09/12 11:07:31;;;;;;;18.85;10.40;;;;;;;19.45;44.40;99563.69;5095396;28;20035;-64
2022/09/12 11:10:00;;;;;;;18.88;10.45;;;;;;;19.43;43.87;99567.53;5108602;28;20225;-65
2022/09/12 11:17:54;;;;;;;17.25;12.05;;;;;;;19.43;43.20;99554.13;6093647;22;20040;-66
2022/09/12 11:20:39;;;;;;;12.63;9.48;;;;;;;19.43;43.49;99554.13;5107978;28;20039;-66
2022/09/12 11:23:13;;;;;;;14.95;7.45;;;;;;;19.42;43.91;99561.34;5108234;28;20028;-65
2022/09/12 11:25:58;;;;;;;15.65;9.32;;;;;;;19.44;44.17;99563.84;5107896;28;20043;-68
2022/09/12 11:28:48;;;;;;;14.32;8.93;;;;;;;19.43;43.98;99556.78;5108353;28;20024;-68
2022/09/12 11:31:19;;;;;;;14.55;8.90;;;;;;;19.43;44.07;99556.78;5107978;28;20035;-65
2022/09/12 11:33:47;;;;;;;;;;;;;;;19.34;44.35;99543.44;5108401;28;20152;-66
2022/09/12 11:36:16;;;;;;;13.57;9.13;;;;;;;19.38;44.14;99543.91;5108016;28;19919;-65
2022/09/12 11:38:46;;;;;;;13.93;7.93;;;;;;;19.41;44.23;99556.16;5107969;28;20028;-66
2022/09/12 11:41:17;;;;;;;15.02;10.15;;;;;;;19.42;44.05;99545.25;5106940;28;20030;-66
2022/09/12 11:43:51;;;;;;;13.82;8.05;;;;;;;19.45;44.23;99547.56;5107515;28;20026;-66
2022/09/12 11:46:37;;;;;;;13.90;8.40;;;;;;;19.44;44.08;99543.22;5107966;28;20118;-67
2022/09/12 11:49:12;;;;;;;18.23;10.38;;;;;;;19.45;43.95;99547.56;5107228;28;20074;-67
2022/09/12 11:51:55;;;;;;;13.43;8.63;;;;;;;19.44;43.94;99543.22;5107562;28;20028;-65
2022/09/12 11:54:23;;;;;;;12.07;8.00;;;;;;;19.45;43.73;99549.41;5108214;28;20221;-65
2022/09/12 11:56:58;;;;;;;16.35;10.35;;;;;;;19.45;43.69;99554.78;5107293;28;20209;-67